sensor_id;sensor_type;location;lat;lon;timestamp;temperature;humidity
44305;DHT22;30019;50.576;8.568;2023-05-14T00:00:06;9.30;99.90
44305;DHT22;30019;50.576;8.568;2023-05-14T00:02:32;9.30;99.90
44305;DHT22;30019;50.576;8.568;2023-05-14T00:04:58;9.20;99.90
44305;DHT22;30019;50.576;8.568;2023-05-14T00:07:23;9.10;99.90
44305;DHT22;30019;50.576;8.568;2023-05-14T00:09:55;9.10;99.90
44305;DHT22;30019;50.576;8.568;2023-05-14T00:12:20;9.10;99.90
44305;DHT22;30019;50.576;8.568;2023-05-14T00:14:46;9.10;99.90
44305;DHT22;30019;50.576;8.568;2023-05-14T00:17:11;9.00;99.90
44305;DHT22;30019;50.576;8.568;2023-05-14T00:19:37;9.00;99.90
44305;DHT22;30019;50.576;8.568;2023-05-14T00:22:09;8.90;99.90
44305;DHT22;30019;50.576;8.568;2023-05-14T00:24:34;8.90;99.90
44305;DHT22;30019;50.576;8.568;2023-05-14T00:27:00;8.90;99.90
44305;DHT22;30019;50.576;8.568;2023-05-14T00:29:26;8.90;99.90
44305;DHT22;30019;50.576;8.568;2023-05-14T00:31:51;8.80;99.90
44305;DHT22;30019;50.576;8.568;2023-05-14T00:34:16;8.80;99.90
44305;DHT22;30019;50.576;8.568;2023-05-14T00:36:42;8.70;99.90
44305;DHT22;30019;50.576;8.568;2023-05-14T00:39:07;8.80;99.90
44305;DHT22;30019;50.576;8.568;2023-05-14T00:41:33;8.60;99.90
44305;DHT22;30019;50.576;8.568;2023-05-14T00:43:58;8.70;99.90
44305;DHT22;30019;50.576;8.568;2023-05-14T00:46:24;8.60;99.90
44305;DHT22;30019;50.576;8.568;2023-05-14T00:48:50;8.60;99.90
44305;DHT22;30019;50.576;8.568;2023-05-14T00:51:16;8.60;99.90
44305;DHT22;30019;50.576;8.568;2023-05-14T00:53:42;8.60;99.90
44305;DHT22;30019;50.576;8.568;2023-05-14T00:56:07;8.60;99.90
44305;DHT22;30019;50.576;8.568;2023-05-14T00:58:33;8.60;99.90
44305;DHT22;30019;50.576;8.568;2023-05-14T01:00:59;8.50;99.90
44305;DHT22;30019;50.576;8.568;2023-05-14T01:03:24;8.50;99.90
44305;DHT22;30019;50.576;8.568;2023-05-14T01:05:55;8.60;99.90
44305;DHT22;30019;50.576;8.568;2023-05-14T01:10:59;8.50;99.90
44305;DHT22;30019;50.576;8.568;2023-05-14T01:13:37;8.50;99.90
44305;DHT22;30019;50.576;8.568;2023-05-14T01:16:05;8.60;99.90
44305;DHT22;30019;50.576;8.568;2023-05-14T01:18:32;8.60;99.90
44305;DHT22;30019;50.576;8.568;2023-05-14T01:20:58;8.60;99.90
44305;DHT22;30019;50.576;8.568;2023-05-14T01:23:23;8.60;99.90
44305;DHT22;30019;50.576;8.568;2023-05-14T01:25:49;8.50;99.90
44305;DHT22;30019;50.576;8.568;2023-05-14T01:28:19;8.50;99.90
44305;DHT22;30019;50.576;8.568;2023-05-14T01:30:47;8.40;99.90
44305;DHT22;30019;50.576;8.568;2023-05-14T01:33:14;8.40;99.90
44305;DHT22;30019;50.576;8.568;2023-05-14T01:35:40;8.40;99.90
44305;DHT22;30019;50.576;8.568;2023-05-14T01:38:06;8.40;99.90
44305;DHT22;30019;50.576;8.568;2023-05-14T01:40:33;8.40;99.90
44305;DHT22;30019;50.576;8.568;2023-05-14T01:43:00;8.40;99.90
44305;DHT22;30019;50.576;8.568;2023-05-14T01:45:26;8.30;99.90
44305;DHT22;30019;50.576;8.568;2023-05-14T01:47:52;8.30;99.90
44305;DHT22;30019;50.576;8.568;2023-05-14T01:50:17;8.30;99.90
44305;DHT22;30019;50.576;8.568;2023-05-14T01:52:43;8.40;99.90
44305;DHT22;30019;50.576;8.568;2023-05-14T01:55:09;8.30;99.90
44305;DHT22;30019;50.576;8.568;2023-05-14T01:57:34;8.30;99.90
44305;DHT22;30019;50.576;8.568;2023-05-14T02:00:00;8.30;99.90
44305;DHT22;30019;50.576;8.568;2023-05-14T02:02:25;8.20;99.90
44305;DHT22;30019;50.576;8.568;2023-05-14T02:04:51;8.20;99.90
44305;DHT22;30019;50.576;8.568;2023-05-14T02:07:16;8.20;99.90
44305;DHT22;30019;50.576;8.568;2023-05-14T02:09:42;8.20;99.90
44305;DHT22;30019;50.576;8.568;2023-05-14T02:12:08;8.20;99.90
44305;DHT22;30019;50.576;8.568;2023-05-14T02:14:33;8.20;99.90
44305;DHT22;30019;50.576;8.568;2023-05-14T02:16:59;8.20;99.90
44305;DHT22;30019;50.576;8.568;2023-05-14T02:19:24;8.10;99.90
44305;DHT22;30019;50.576;8.568;2023-05-14T02:21:50;8.10;99.90
44305;DHT22;30019;50.576;8.568;2023-05-14T02:24:15;8.10;99.90
44305;DHT22;30019;50.576;8.568;2023-05-14T02:26:41;8.00;99.90
44305;DHT22;30019;50.576;8.568;2023-05-14T02:29:06;8.00;99.90
44305;DHT22;30019;50.576;8.568;2023-05-14T02:31:32;7.90;99.90
44305;DHT22;30019;50.576;8.568;2023-05-14T02:33:57;7.90;99.90
44305;DHT22;30019;50.576;8.568;2023-05-14T02:36:23;7.90;99.90
44305;DHT22;30019;50.576;8.568;2023-05-14T02:38:48;7.90;99.90
44305;DHT22;30019;50.576;8.568;2023-05-14T02:41:14;7.90;99.90
44305;DHT22;30019;50.576;8.568;2023-05-14T02:43:39;7.90;99.90
44305;DHT22;30019;50.576;8.568;2023-05-14T02:46:05;7.90;99.90
44305;DHT22;30019;50.576;8.568;2023-05-14T02:48:30;7.90;99.90
44305;DHT22;30019;50.576;8.568;2023-05-14T02:50:56;7.90;99.90
44305;DHT22;30019;50.576;8.568;2023-05-14T02:53:21;7.90;99.90
44305;DHT22;30019;50.576;8.568;2023-05-14T02:55:47;8.00;99.90
44305;DHT22;30019;50.576;8.568;2023-05-14T02:58:12;8.00;99.90
44305;DHT22;30019;50.576;8.568;2023-05-14T03:00:38;8.00;99.90
44305;DHT22;30019;50.576;8.568;2023-05-14T03:03:03;8.00;99.90
44305;DHT22;30019;50.576;8.568;2023-05-14T03:05:28;7.90;99.90
44305;DHT22;30019;50.576;8.568;2023-05-14T03:07:54;7.90;99.90
44305;DHT22;30019;50.576;8.568;2023-05-14T03:10:19;7.90;99.90
44305;DHT22;30019;50.576;8.568;2023-05-14T03:12:45;7.90;99.90
44305;DHT22;30019;50.576;8.568;2023-05-14T03:15:11;7.80;99.90
44305;DHT22;30019;50.576;8.568;2023-05-14T03:17:37;7.70;99.90
44305;DHT22;30019;50.576;8.568;2023-05-14T03:20:02;7.70;99.90
44305;DHT22;30019;50.576;8.568;2023-05-14T03:22:28;7.70;99.90
44305;DHT22;30019;50.576;8.568;2023-05-14T03:24:53;7.70;99.90
44305;DHT22;30019;50.576;8.568;2023-05-14T03:27:19;7.70;99.90
44305;DHT22;30019;50.576;8.568;2023-05-14T03:29:45;7.60;99.90
44305;DHT22;30019;50.576;8.568;2023-05-14T03:32:10;7.70;99.90
44305;DHT22;30019;50.576;8.568;2023-05-14T03:34:35;7.70;99.90
44305;DHT22;30019;50.576;8.568;2023-05-14T03:37:01;7.70;99.90
44305;DHT22;30019;50.576;8.568;2023-05-14T03:39:27;7.70;99.90
44305;DHT22;30019;50.576;8.568;2023-05-14T03:41:52;7.60;99.90
44305;DHT22;30019;50.576;8.568;2023-05-14T03:44:17;7.60;99.90
44305;DHT22;30019;50.576;8.568;2023-05-14T03:46:43;7.60;99.90
44305;DHT22;30019;50.576;8.568;2023-05-14T03:49:09;7.50;99.90
44305;DHT22;30019;50.576;8.568;2023-05-14T03:51:34;7.50;99.90
44305;DHT22;30019;50.576;8.568;2023-05-14T03:54:00;7.40;99.90
44305;DHT22;30019;50.576;8.568;2023-05-14T03:56:26;7.40;99.90
44305;DHT22;30019;50.576;8.568;2023-05-14T03:58:51;7.40;99.90
44305;DHT22;30019;50.576;8.568;2023-05-14T04:01:17;7.40;99.90
44305;DHT22;30019;50.576;8.568;2023-05-14T04:03:42;7.30;99.90
44305;DHT22;30019;50.576;8.568;2023-05-14T04:06:08;7.40;99.90
44305;DHT22;30019;50.576;8.568;2023-05-14T04:08:34;7.40;99.90
44305;DHT22;30019;50.576;8.568;2023-05-14T04:10:59;7.30;99.90
44305;DHT22;30019;50.576;8.568;2023-05-14T04:13:25;7.30;99.90
44305;DHT22;30019;50.576;8.568;2023-05-14T04:15:50;7.30;99.90
44305;DHT22;30019;50.576;8.568;2023-05-14T04:18:16;7.40;99.90
44305;DHT22;30019;50.576;8.568;2023-05-14T04:20:41;7.30;99.90
44305;DHT22;30019;50.576;8.568;2023-05-14T04:23:07;7.30;99.90
44305;DHT22;30019;50.576;8.568;2023-05-14T04:25:33;7.40;99.90
44305;DHT22;30019;50.576;8.568;2023-05-14T04:27:58;7.30;99.90
44305;DHT22;30019;50.576;8.568;2023-05-14T04:30:24;7.30;99.90
44305;DHT22;30019;50.576;8.568;2023-05-14T04:32:49;7.30;99.90
44305;DHT22;30019;50.576;8.568;2023-05-14T04:35:15;7.30;99.90
44305;DHT22;30019;50.576;8.568;2023-05-14T04:37:41;7.30;99.90
44305;DHT22;30019;50.576;8.568;2023-05-14T04:40:08;7.30;99.90
44305;DHT22;30019;50.576;8.568;2023-05-14T04:42:36;7.30;99.90
44305;DHT22;30019;50.576;8.568;2023-05-14T04:45:01;7.20;99.90
44305;DHT22;30019;50.576;8.568;2023-05-14T04:47:29;7.20;99.90
44305;DHT22;30019;50.576;8.568;2023-05-14T04:49:54;7.30;99.90
44305;DHT22;30019;50.576;8.568;2023-05-14T04:52:20;7.30;99.90
44305;DHT22;30019;50.576;8.568;2023-05-14T04:54:45;7.30;99.90
44305;DHT22;30019;50.576;8.568;2023-05-14T04:57:11;7.40;99.90
44305;DHT22;30019;50.576;8.568;2023-05-14T04:59:36;7.50;99.90
44305;DHT22;30019;50.576;8.568;2023-05-14T05:02:02;7.60;99.90
44305;DHT22;30019;50.576;8.568;2023-05-14T05:04:28;7.60;99.90
44305;DHT22;30019;50.576;8.568;2023-05-14T05:06:53;7.60;99.90
44305;DHT22;30019;50.576;8.568;2023-05-14T05:09:19;7.70;99.90
44305;DHT22;30019;50.576;8.568;2023-05-14T05:11:44;7.80;99.90
44305;DHT22;30019;50.576;8.568;2023-05-14T05:14:10;7.90;99.90
44305;DHT22;30019;50.576;8.568;2023-05-14T05:16:35;7.70;99.90
44305;DHT22;30019;50.576;8.568;2023-05-14T05:19:01;7.70;99.90
44305;DHT22;30019;50.576;8.568;2023-05-14T05:21:26;7.70;99.90
44305;DHT22;30019;50.576;8.568;2023-05-14T05:23:52;7.80;99.90
44305;DHT22;30019;50.576;8.568;2023-05-14T05:26:17;7.80;99.90
44305;DHT22;30019;50.576;8.568;2023-05-14T05:28:43;8.00;99.90
44305;DHT22;30019;50.576;8.568;2023-05-14T05:31:09;8.00;99.90
44305;DHT22;30019;50.576;8.568;2023-05-14T05:33:34;8.10;99.90
44305;DHT22;30019;50.576;8.568;2023-05-14T05:36:00;8.00;99.90
44305;DHT22;30019;50.576;8.568;2023-05-14T05:38:25;7.90;99.90
44305;DHT22;30019;50.576;8.568;2023-05-14T05:40:51;7.90;99.90
44305;DHT22;30019;50.576;8.568;2023-05-14T05:43:17;7.90;99.90
44305;DHT22;30019;50.576;8.568;2023-05-14T05:45:42;7.90;99.90
44305;DHT22;30019;50.576;8.568;2023-05-14T05:48:10;8.00;99.90
44305;DHT22;30019;50.576;8.568;2023-05-14T05:50:36;7.90;99.90
44305;DHT22;30019;50.576;8.568;2023-05-14T05:53:02;7.90;99.90
44305;DHT22;30019;50.576;8.568;2023-05-14T05:55:28;8.10;99.90
44305;DHT22;30019;50.576;8.568;2023-05-14T05:57:54;8.00;99.90
44305;DHT22;30019;50.576;8.568;2023-05-14T06:00:19;8.00;99.90
44305;DHT22;30019;50.576;8.568;2023-05-14T06:02:45;8.10;99.90
44305;DHT22;30019;50.576;8.568;2023-05-14T06:05:11;8.20;99.90
44305;DHT22;30019;50.576;8.568;2023-05-14T06:07:37;8.30;99.90
44305;DHT22;30019;50.576;8.568;2023-05-14T06:10:03;8.30;99.90
44305;DHT22;30019;50.576;8.568;2023-05-14T06:12:29;8.40;99.90
44305;DHT22;30019;50.576;8.568;2023-05-14T06:14:54;8.50;99.90
44305;DHT22;30019;50.576;8.568;2023-05-14T06:17:22;8.50;99.90
44305;DHT22;30019;50.576;8.568;2023-05-14T06:19:48;8.60;99.90
44305;DHT22;30019;50.576;8.568;2023-05-14T06:22:13;8.60;99.90
44305;DHT22;30019;50.576;8.568;2023-05-14T06:24:39;8.70;99.90
44305;DHT22;30019;50.576;8.568;2023-05-14T06:27:05;8.90;99.90
44305;DHT22;30019;50.576;8.568;2023-05-14T06:29:30;9.00;99.90
44305;DHT22;30019;50.576;8.568;2023-05-14T06:31:59;9.20;99.90
44305;DHT22;30019;50.576;8.568;2023-05-14T06:34:25;9.40;99.90
44305;DHT22;30019;50.576;8.568;2023-05-14T06:36:51;9.50;99.90
44305;DHT22;30019;50.576;8.568;2023-05-14T06:39:16;9.70;99.90
44305;DHT22;30019;50.576;8.568;2023-05-14T06:41:41;9.80;99.90
44305;DHT22;30019;50.576;8.568;2023-05-14T06:44:07;9.90;99.90
44305;DHT22;30019;50.576;8.568;2023-05-14T06:46:32;10.10;99.90
44305;DHT22;30019;50.576;8.568;2023-05-14T06:48:58;10.20;99.90
44305;DHT22;30019;50.576;8.568;2023-05-14T06:51:23;10.40;99.90
44305;DHT22;30019;50.576;8.568;2023-05-14T06:53:49;10.60;99.90
44305;DHT22;30019;50.576;8.568;2023-05-14T06:56:15;10.90;99.90
44305;DHT22;30019;50.576;8.568;2023-05-14T06:58:41;11.00;99.90
44305;DHT22;30019;50.576;8.568;2023-05-14T07:01:06;11.10;99.90
44305;DHT22;30019;50.576;8.568;2023-05-14T07:03:31;11.10;99.90
44305;DHT22;30019;50.576;8.568;2023-05-14T07:05:57;11.40;99.90
44305;DHT22;30019;50.576;8.568;2023-05-14T07:08:23;11.50;99.90
44305;DHT22;30019;50.576;8.568;2023-05-14T07:10:48;11.80;99.90
44305;DHT22;30019;50.576;8.568;2023-05-14T07:13:14;11.90;99.90
44305;DHT22;30019;50.576;8.568;2023-05-14T07:15:39;12.20;99.90
44305;DHT22;30019;50.576;8.568;2023-05-14T07:18:05;12.40;99.90
44305;DHT22;30019;50.576;8.568;2023-05-14T07:20:30;12.40;99.90
44305;DHT22;30019;50.576;8.568;2023-05-14T07:22:55;12.50;99.90
44305;DHT22;30019;50.576;8.568;2023-05-14T07:25:21;12.60;99.90
44305;DHT22;30019;50.576;8.568;2023-05-14T07:27:46;12.70;99.90
44305;DHT22;30019;50.576;8.568;2023-05-14T07:30:12;12.90;99.90
44305;DHT22;30019;50.576;8.568;2023-05-14T07:32:37;13.10;99.90
44305;DHT22;30019;50.576;8.568;2023-05-14T07:35:03;13.40;99.90
44305;DHT22;30019;50.576;8.568;2023-05-14T07:37:29;13.60;99.90
44305;DHT22;30019;50.576;8.568;2023-05-14T07:39:54;13.60;99.90
44305;DHT22;30019;50.576;8.568;2023-05-14T07:42:20;13.70;99.90
44305;DHT22;30019;50.576;8.568;2023-05-14T07:44:45;13.90;99.90
44305;DHT22;30019;50.576;8.568;2023-05-14T07:47:11;14.10;99.90
44305;DHT22;30019;50.576;8.568;2023-05-14T07:49:36;14.40;99.90
44305;DHT22;30019;50.576;8.568;2023-05-14T07:52:02;14.40;99.90
44305;DHT22;30019;50.576;8.568;2023-05-14T07:54:28;14.50;99.90
44305;DHT22;30019;50.576;8.568;2023-05-14T07:56:53;14.60;99.90
44305;DHT22;30019;50.576;8.568;2023-05-14T07:59:18;14.60;99.90
44305;DHT22;30019;50.576;8.568;2023-05-14T08:01:44;14.50;99.90
44305;DHT22;30019;50.576;8.568;2023-05-14T08:04:09;14.70;99.90
44305;DHT22;30019;50.576;8.568;2023-05-14T08:06:40;14.80;99.90
44305;DHT22;30019;50.576;8.568;2023-05-14T08:09:06;14.90;99.90
44305;DHT22;30019;50.576;8.568;2023-05-14T08:11:33;15.10;99.90
44305;DHT22;30019;50.576;8.568;2023-05-14T08:13:58;15.10;99.90
44305;DHT22;30019;50.576;8.568;2023-05-14T08:16:24;14.90;99.90
44305;DHT22;30019;50.576;8.568;2023-05-14T08:18:50;15.10;99.90
44305;DHT22;30019;50.576;8.568;2023-05-14T08:21:15;14.90;99.90
44305;DHT22;30019;50.576;8.568;2023-05-14T08:23:41;14.90;99.90
44305;DHT22;30019;50.576;8.568;2023-05-14T08:26:07;15.00;99.90
44305;DHT22;30019;50.576;8.568;2023-05-14T08:28:32;15.20;99.90
44305;DHT22;30019;50.576;8.568;2023-05-14T08:30:58;15.60;99.90
44305;DHT22;30019;50.576;8.568;2023-05-14T08:33:23;16.50;99.90
44305;DHT22;30019;50.576;8.568;2023-05-14T08:35:51;17.00;99.90
44305;DHT22;30019;50.576;8.568;2023-05-14T08:38:16;17.60;99.90
44305;DHT22;30019;50.576;8.568;2023-05-14T08:40:45;17.80;99.90
44305;DHT22;30019;50.576;8.568;2023-05-14T08:43:12;18.20;99.90
44305;DHT22;30019;50.576;8.568;2023-05-14T08:45:39;18.00;99.90
44305;DHT22;30019;50.576;8.568;2023-05-14T08:48:05;18.20;99.90
44305;DHT22;30019;50.576;8.568;2023-05-14T08:50:33;17.90;99.90
44305;DHT22;30019;50.576;8.568;2023-05-14T08:53:00;18.10;99.90
44305;DHT22;30019;50.576;8.568;2023-05-14T08:55:25;17.60;99.90
44305;DHT22;30019;50.576;8.568;2023-05-14T08:57:52;17.00;99.90
44305;DHT22;30019;50.576;8.568;2023-05-14T09:00:18;16.60;99.90
44305;DHT22;30019;50.576;8.568;2023-05-14T09:02:45;16.20;99.90
44305;DHT22;30019;50.576;8.568;2023-05-14T09:05:12;16.10;99.90
44305;DHT22;30019;50.576;8.568;2023-05-14T09:07:38;16.10;99.90
44305;DHT22;30019;50.576;8.568;2023-05-14T09:10:04;16.90;99.90
44305;DHT22;30019;50.576;8.568;2023-05-14T09:12:29;18.00;99.90
44305;DHT22;30019;50.576;8.568;2023-05-14T09:14:55;18.70;99.90
44305;DHT22;30019;50.576;8.568;2023-05-14T09:17:21;19.00;99.90
44305;DHT22;30019;50.576;8.568;2023-05-14T09:19:46;18.30;99.20
44305;DHT22;30019;50.576;8.568;2023-05-14T09:22:14;18.40;99.90
44305;DHT22;30019;50.576;8.568;2023-05-14T09:24:40;18.60;99.90
44305;DHT22;30019;50.576;8.568;2023-05-14T09:27:08;18.50;99.90
44305;DHT22;30019;50.576;8.568;2023-05-14T09:29:34;18.90;99.90
44305;DHT22;30019;50.576;8.568;2023-05-14T09:32:00;19.10;99.90
44305;DHT22;30019;50.576;8.568;2023-05-14T09:34:33;18.90;98.50
44305;DHT22;30019;50.576;8.568;2023-05-14T09:37:01;18.50;97.80
44305;DHT22;30019;50.576;8.568;2023-05-14T09:39:27;18.40;99.90
44305;DHT22;30019;50.576;8.568;2023-05-14T09:41:53;18.60;96.60
44305;DHT22;30019;50.576;8.568;2023-05-14T09:44:20;18.70;98.60
44305;DHT22;30019;50.576;8.568;2023-05-14T09:46:46;18.80;99.90
44305;DHT22;30019;50.576;8.568;2023-05-14T09:49:12;19.50;98.30
44305;DHT22;30019;50.576;8.568;2023-05-14T09:51:37;19.90;97.20
44305;DHT22;30019;50.576;8.568;2023-05-14T09:54:03;20.10;95.40
44305;DHT22;30019;50.576;8.568;2023-05-14T09:56:29;19.70;97.90
44305;DHT22;30019;50.576;8.568;2023-05-14T09:58:54;20.00;99.90
44305;DHT22;30019;50.576;8.568;2023-05-14T10:01:20;19.70;96.90
44305;DHT22;30019;50.576;8.568;2023-05-14T10:03:46;19.60;99.20
44305;DHT22;30019;50.576;8.568;2023-05-14T10:06:15;19.50;96.50
44305;DHT22;30019;50.576;8.568;2023-05-14T10:08:42;18.80;97.20
44305;DHT22;30019;50.576;8.568;2023-05-14T10:11:17;18.90;99.10
44305;DHT22;30019;50.576;8.568;2023-05-14T10:13:51;19.10;97.80
44305;DHT22;30019;50.576;8.568;2023-05-14T10:16:23;19.30;97.50
44305;DHT22;30019;50.576;8.568;2023-05-14T10:18:51;19.10;97.40
44305;DHT22;30019;50.576;8.568;2023-05-14T10:21:21;18.90;96.60
44305;DHT22;30019;50.576;8.568;2023-05-14T10:23:48;19.70;99.50
44305;DHT22;30019;50.576;8.568;2023-05-14T10:26:14;20.00;95.00
44305;DHT22;30019;50.576;8.568;2023-05-14T10:28:40;20.30;97.90
44305;DHT22;30019;50.576;8.568;2023-05-14T10:31:07;20.60;97.00
44305;DHT22;30019;50.576;8.568;2023-05-14T10:33:41;20.20;96.70
44305;DHT22;30019;50.576;8.568;2023-05-14T10:36:10;20.30;96.90
44305;DHT22;30019;50.576;8.568;2023-05-14T10:38:36;20.50;95.70
44305;DHT22;30019;50.576;8.568;2023-05-14T10:41:10;21.10;95.70
44305;DHT22;30019;50.576;8.568;2023-05-14T10:43:36;21.50;97.00
44305;DHT22;30019;50.576;8.568;2023-05-14T10:46:03;20.80;94.30
44305;DHT22;30019;50.576;8.568;2023-05-14T10:48:28;21.00;96.60
44305;DHT22;30019;50.576;8.568;2023-05-14T10:50:54;21.50;95.20
44305;DHT22;30019;50.576;8.568;2023-05-14T10:53:33;22.00;94.80
44305;DHT22;30019;50.576;8.568;2023-05-14T10:56:12;22.30;93.80
44305;DHT22;30019;50.576;8.568;2023-05-14T10:58:39;23.00;93.20
44305;DHT22;30019;50.576;8.568;2023-05-14T11:01:05;23.30;91.40
44305;DHT22;30019;50.576;8.568;2023-05-14T11:03:31;23.50;94.00
44305;DHT22;30019;50.576;8.568;2023-05-14T11:06:03;24.60;92.70
44305;DHT22;30019;50.576;8.568;2023-05-14T11:08:30;24.80;87.00
44305;DHT22;30019;50.576;8.568;2023-05-14T11:10:56;25.90;87.80
44305;DHT22;30019;50.576;8.568;2023-05-14T11:13:22;26.10;77.70
44305;DHT22;30019;50.576;8.568;2023-05-14T11:15:48;25.30;78.60
44305;DHT22;30019;50.576;8.568;2023-05-14T11:18:24;24.60;79.10
44305;DHT22;30019;50.576;8.568;2023-05-14T11:20:50;24.00;84.20
44305;DHT22;30019;50.576;8.568;2023-05-14T11:23:16;23.10;82.70
44305;DHT22;30019;50.576;8.568;2023-05-14T11:25:42;22.80;88.10
44305;DHT22;30019;50.576;8.568;2023-05-14T11:28:07;21.60;90.80
44305;DHT22;30019;50.576;8.568;2023-05-14T11:30:34;21.10;92.10
44305;DHT22;30019;50.576;8.568;2023-05-14T11:32:59;21.00;91.90
44305;DHT22;30019;50.576;8.568;2023-05-14T11:35:25;21.50;93.00
44305;DHT22;30019;50.576;8.568;2023-05-14T11:37:50;22.70;90.50
44305;DHT22;30019;50.576;8.568;2023-05-14T11:40:16;22.50;86.10
44305;DHT22;30019;50.576;8.568;2023-05-14T11:42:42;22.60;89.40
44305;DHT22;30019;50.576;8.568;2023-05-14T11:45:10;22.70;90.10
44305;DHT22;30019;50.576;8.568;2023-05-14T11:47:36;23.50;92.80
44305;DHT22;30019;50.576;8.568;2023-05-14T11:50:02;23.60;87.10
44305;DHT22;30019;50.576;8.568;2023-05-14T11:52:28;23.00;87.70
44305;DHT22;30019;50.576;8.568;2023-05-14T11:54:53;22.20;91.20
44305;DHT22;30019;50.576;8.568;2023-05-14T11:57:19;21.60;90.80
44305;DHT22;30019;50.576;8.568;2023-05-14T11:59:53;21.60;92.20
44305;DHT22;30019;50.576;8.568;2023-05-14T12:02:21;22.10;91.50
44305;DHT22;30019;50.576;8.568;2023-05-14T12:04:50;22.70;91.10
44305;DHT22;30019;50.576;8.568;2023-05-14T12:07:18;22.80;88.40
44305;DHT22;30019;50.576;8.568;2023-05-14T12:09:44;23.10;89.90
44305;DHT22;30019;50.576;8.568;2023-05-14T12:12:17;23.60;94.30
44305;DHT22;30019;50.576;8.568;2023-05-14T12:14:43;22.90;89.90
44305;DHT22;30019;50.576;8.568;2023-05-14T12:17:20;21.70;90.70
44305;DHT22;30019;50.576;8.568;2023-05-14T12:19:50;20.80;90.90
44305;DHT22;30019;50.576;8.568;2023-05-14T12:22:16;20.90;92.90
44305;DHT22;30019;50.576;8.568;2023-05-14T12:24:43;21.50;95.30
44305;DHT22;30019;50.576;8.568;2023-05-14T12:27:16;22.20;91.80
44305;DHT22;30019;50.576;8.568;2023-05-14T12:29:41;22.70;90.00
44305;DHT22;30019;50.576;8.568;2023-05-14T12:32:07;22.90;90.00
44305;DHT22;30019;50.576;8.568;2023-05-14T12:34:34;23.30;86.70
44305;DHT22;30019;50.576;8.568;2023-05-14T12:37:00;23.70;87.90
44305;DHT22;30019;50.576;8.568;2023-05-14T12:39:25;23.40;84.20
44305;DHT22;30019;50.576;8.568;2023-05-14T12:41:51;23.60;90.50
44305;DHT22;30019;50.576;8.568;2023-05-14T12:44:16;23.70;85.40
44305;DHT22;30019;50.576;8.568;2023-05-14T12:46:42;24.40;83.40
44305;DHT22;30019;50.576;8.568;2023-05-14T12:49:08;23.40;81.70
44305;DHT22;30019;50.576;8.568;2023-05-14T12:51:33;23.10;81.90
44305;DHT22;30019;50.576;8.568;2023-05-14T12:53:59;22.80;81.80
44305;DHT22;30019;50.576;8.568;2023-05-14T12:56:24;23.40;91.00
44305;DHT22;30019;50.576;8.568;2023-05-14T12:58:54;23.60;87.40
44305;DHT22;30019;50.576;8.568;2023-05-14T13:01:19;23.20;84.90
44305;DHT22;30019;50.576;8.568;2023-05-14T13:03:45;21.90;91.40
44305;DHT22;30019;50.576;8.568;2023-05-14T13:06:11;20.90;95.50
44305;DHT22;30019;50.576;8.568;2023-05-14T13:08:37;20.30;99.90
44305;DHT22;30019;50.576;8.568;2023-05-14T13:11:02;19.60;99.90
44305;DHT22;30019;50.576;8.568;2023-05-14T13:13:28;18.90;99.90
44305;DHT22;30019;50.576;8.568;2023-05-14T13:15:53;18.40;99.90
44305;DHT22;30019;50.576;8.568;2023-05-14T13:18:19;17.90;99.90
44305;DHT22;30019;50.576;8.568;2023-05-14T13:20:45;17.50;99.90
44305;DHT22;30019;50.576;8.568;2023-05-14T13:23:11;17.30;99.90
44305;DHT22;30019;50.576;8.568;2023-05-14T13:25:37;17.20;99.90
44305;DHT22;30019;50.576;8.568;2023-05-14T13:28:02;17.20;99.90
44305;DHT22;30019;50.576;8.568;2023-05-14T13:30:28;17.30;99.90
44305;DHT22;30019;50.576;8.568;2023-05-14T13:32:54;17.30;99.90
44305;DHT22;30019;50.576;8.568;2023-05-14T13:35:19;17.50;99.90
44305;DHT22;30019;50.576;8.568;2023-05-14T13:37:46;17.70;99.90
44305;DHT22;30019;50.576;8.568;2023-05-14T13:40:11;18.00;99.90
44305;DHT22;30019;50.576;8.568;2023-05-14T13:42:37;18.20;99.90
44305;DHT22;30019;50.576;8.568;2023-05-14T13:45:04;18.10;99.90
44305;DHT22;30019;50.576;8.568;2023-05-14T13:47:30;18.10;99.90
44305;DHT22;30019;50.576;8.568;2023-05-14T13:49:57;18.40;99.90
44305;DHT22;30019;50.576;8.568;2023-05-14T13:52:22;18.90;99.90
44305;DHT22;30019;50.576;8.568;2023-05-14T13:54:48;18.90;99.90
44305;DHT22;30019;50.576;8.568;2023-05-14T13:57:13;19.20;99.90
44305;DHT22;30019;50.576;8.568;2023-05-14T13:59:39;19.10;99.90
44305;DHT22;30019;50.576;8.568;2023-05-14T14:02:05;19.10;99.90
44305;DHT22;30019;50.576;8.568;2023-05-14T14:04:31;19.30;99.90
44305;DHT22;30019;50.576;8.568;2023-05-14T14:06:57;19.10;99.90
44305;DHT22;30019;50.576;8.568;2023-05-14T14:09:23;19.00;99.90
44305;DHT22;30019;50.576;8.568;2023-05-14T14:11:49;19.10;99.90
44305;DHT22;30019;50.576;8.568;2023-05-14T14:14:16;19.10;99.90
44305;DHT22;30019;50.576;8.568;2023-05-14T14:16:42;18.90;99.90
44305;DHT22;30019;50.576;8.568;2023-05-14T14:19:07;18.90;99.90
44305;DHT22;30019;50.576;8.568;2023-05-14T14:21:34;19.50;99.90
44305;DHT22;30019;50.576;8.568;2023-05-14T14:24:00;19.50;99.90
44305;DHT22;30019;50.576;8.568;2023-05-14T14:26:26;19.90;99.90
44305;DHT22;30019;50.576;8.568;2023-05-14T14:28:54;20.10;99.50
44305;DHT22;30019;50.576;8.568;2023-05-14T14:31:20;20.70;99.90
44305;DHT22;30019;50.576;8.568;2023-05-14T14:33:45;20.60;98.80
44305;DHT22;30019;50.576;8.568;2023-05-14T14:36:11;20.60;97.80
44305;DHT22;30019;50.576;8.568;2023-05-14T14:38:36;20.80;95.90
44305;DHT22;30019;50.576;8.568;2023-05-14T14:41:04;20.70;97.30
44305;DHT22;30019;50.576;8.568;2023-05-14T14:43:38;20.90;94.40
44305;DHT22;30019;50.576;8.568;2023-05-14T14:46:04;20.90;96.20
44305;DHT22;30019;50.576;8.568;2023-05-14T14:48:34;20.80;92.40
44305;DHT22;30019;50.576;8.568;2023-05-14T14:51:03;20.80;94.70
44305;DHT22;30019;50.576;8.568;2023-05-14T14:53:29;21.20;95.50
44305;DHT22;30019;50.576;8.568;2023-05-14T14:55:55;21.80;95.50
44305;DHT22;30019;50.576;8.568;2023-05-14T14:58:21;21.90;96.00
44305;DHT22;30019;50.576;8.568;2023-05-14T15:00:49;22.10;95.90
44305;DHT22;30019;50.576;8.568;2023-05-14T15:03:16;22.40;95.20
44305;DHT22;30019;50.576;8.568;2023-05-14T15:05:42;21.10;93.70
44305;DHT22;30019;50.576;8.568;2023-05-14T15:08:08;19.80;96.00
44305;DHT22;30019;50.576;8.568;2023-05-14T15:10:33;19.10;96.90
44305;DHT22;30019;50.576;8.568;2023-05-14T15:13:02;18.80;98.20
44305;DHT22;30019;50.576;8.568;2023-05-14T15:15:28;18.50;98.20
44305;DHT22;30019;50.576;8.568;2023-05-14T15:17:54;18.40;99.10
44305;DHT22;30019;50.576;8.568;2023-05-14T15:20:20;18.80;99.60
44305;DHT22;30019;50.576;8.568;2023-05-14T15:22:45;19.30;99.10
44305;DHT22;30019;50.576;8.568;2023-05-14T15:25:11;19.20;98.30
44305;DHT22;30019;50.576;8.568;2023-05-14T15:27:36;18.80;99.90
44305;DHT22;30019;50.576;8.568;2023-05-14T15:30:02;18.30;99.90
44305;DHT22;30019;50.576;8.568;2023-05-14T15:32:28;17.30;99.90